James Reserve, California Weather observations

Data are for 10 minute period ending at time listed.
 Day   Time   Solar   Ave.   Ave.  Ave.  Vector  Max.   Baro.   Total    
  of    of     Rad.   Air    Rel.  Wind   Wind   Wind  Press.  Precip.   
Year   Day            Temp.  Hum.  Speed  Dir.   Gust                    
2014   (PST)  Kw/m2    F      %     mph   deg.    mph    mb.     in.     
-------------------------------------------------------------------------
 352   15:50   0.03   38.2    97    0.2   205     0.4   839.0    0.00 
 352   16:00   0.02   38.1    97    0.4   133     1.3   839.0    0.00 
 352   16:10   0.03   37.8    97    0.3   188     1.2   839.0    0.00 
 352   16:20   0.01   37.7    96    0.2   131     0.5   839.0    0.00 
 352   16:30   0.01   37.5    97    0.3    41     0.5   839.0    0.00 
 352   16:40   0.00   37.5    97    0.3    43     0.6   839.0    0.00 
 352   16:50   0.00   36.8    97    0.2   182     0.5   839.0    0.00 
 352   17:00   0.00   36.8    98    0.2   127     0.4   839.0    0.00 
 352   17:10   0.00   36.4    98    0.3   124     0.6   839.0    0.00 
 352   17:20   0.00   36.2    98    0.4   190     0.8   839.0    0.00 
 352   17:30   0.00   36.1    98    0.3    52     0.6   839.0    0.00 
 352   17:40   0.00   36.3    98    0.2    20     0.4   840.0    0.00 
 352   17:50   0.00   36.2    98    0.1   132     0.4   840.0    0.00 
 352   18:00   0.00   36.1    98    0.4   142     0.7   840.0    0.00 
 352   18:10   0.00   35.7    98    0.3   190     0.6   840.0    0.00 
 352   18:20   0.00   35.4    99    0.4    58     0.8   840.0    0.00 
 352   18:30   0.00   35.2    99    0.2    55     0.4   840.0    0.00 
 352   18:40   0.00   34.6    99    0.3    83     0.4   840.0    0.00 
 352   18:50   0.00   34.0    99    0.3    48     0.6   840.0    0.00 
 352   19:00   0.00   33.5    99    0.4    72     0.7   840.0    0.00 
 352   19:10   0.00   33.0    99    0.4    44     0.6   840.0    0.00 
 352   19:20   0.00   32.5    99    0.3    65     0.7   840.0    0.00 
 352   19:30   0.00   32.0    99    0.2    73     0.5   840.0    0.00 
 352   19:40   0.00   31.5    99    0.3    37     0.7   840.0    0.00 
 352   19:50   0.00   31.0    99    0.2    12     0.4   840.0    0.00 
 352   20:00   0.00   30.5   100    0.2   336     0.5   840.0    0.00 
 352   20:10   0.00   30.1   100    0.3     6     0.5   841.0    0.00 
 352   20:20   0.00   29.9   100    0.3     2     0.5   841.0    0.00 
 352   20:30   0.00   29.7   100    0.2   348     0.5   840.0    0.00 
 352   20:40   0.00   29.7   100    0.3    11     0.5   841.0    0.00 
 352   20:50   0.00   29.8   100    0.2    16     0.4   841.0    0.00 
 352   21:00   0.00   29.9   100    0.2   356     0.6   841.0    0.00 
 352   21:10   0.00   30.0   100    0.3    41     0.8   841.0    0.00 
 352   21:20   0.00   30.1   100    0.3    28     0.6   841.0    0.00 
 352   21:30   0.00   30.1   100    0.5    34     0.7   841.0    0.00 
 352   21:40   0.00   30.2   100    0.4    22     0.7   841.0    0.00 
 352   21:50   0.00   30.2   100    0.5    25     0.9   841.0    0.00 
 352   22:00   0.00   30.4   100    0.5    37     0.9   841.0    0.00 
 352   22:10   0.00   30.4   100    0.4    24     0.8   841.0    0.00 
 352   22:20   0.00   30.2   100    0.3   359     0.6   841.0    0.00 
 352   22:30   0.00   30.0   100    0.3   354     0.8   841.0    0.00 
 352   22:40   0.00   29.9   100    0.3    34     0.8   841.0    0.00 
 352   22:50   0.00   29.8   100    0.4    24     0.8   841.0    0.00 
 352   23:00   0.00   29.8   100    0.4    13     0.7   841.0    0.00 
 352   23:10   0.00   29.7   100    0.2     6     0.6   841.0    0.00 
 352   23:20   0.00   29.7   100    0.3     1     0.6   841.0    0.00 
 352   23:30   0.00   29.7   100    0.3   350     0.5   841.0    0.00 
 352   23:40   0.00   29.5   100    0.3     4     0.5   841.0    0.00 
 352   23:50   0.00   29.5   100    0.2    12     0.5   841.0    0.00 
 353    0:00   0.00   29.5   100    0.3    14     0.5   841.0    0.00 
 353    0:10   0.00   29.5   100    0.2   356     0.4   841.0    0.00 
 353    0:20   0.00   29.4   100    0.3    24     0.9   841.0    0.00 
 353    0:30   0.00   29.4   100    0.3     7     0.6   841.0    0.00 
 353    0:40   0.00   29.3   100    0.3    10     0.6   840.0    0.00 
 353    0:50   0.00   29.2   100    0.2    13     0.4   840.0    0.00 
 353    1:00   0.00   29.2   100    0.2   352     0.5   840.0    0.00 
 353    1:10   0.00   29.2   100    0.4     1     0.8   840.0    0.00 
 353    1:20   0.00   29.1   100    0.4    16     0.8   840.0    0.00 
 353    1:30   0.00   29.1   100    0.3     3     0.5   840.0    0.00 
 353    1:40   0.00   29.0   100    0.3    11     0.5   840.0    0.00 
 353    1:50   0.00   29.0   100    0.3     3     0.5   840.0    0.00 
 353    2:00   0.00   29.0   100    0.2   338     0.4   840.0    0.00 
 353    2:10   0.00   28.8   100    0.3     0     0.8   840.0    0.00 
 353    2:20   0.00   28.8   100    0.3    18     0.8   840.0    0.00 
 353    2:30   0.00   28.7   100    0.3    24     0.5   840.0    0.00 
 353    2:40   0.00   28.6   100    0.2   352     0.5   840.0    0.00 
 353    2:50   0.00   28.6   100    0.3    31     0.6   840.0    0.00 
 353    3:00   0.00   28.7   100    0.3   357     0.6   840.0    0.00 
 353    3:10   0.00   28.6   100    0.3    14     0.6   840.0    0.00 
 353    3:20   0.00   28.6   100    0.4    32     0.8   840.0    0.00 
 353    3:30   0.00   28.6   100    0.3    15     0.6   840.0    0.00 
 353    3:40   0.00   28.7   100    0.4    24     0.6   840.0    0.00 
 353    3:50   0.00   28.8   100    0.4    39     0.7   840.0    0.00 
 353    4:00   0.00   28.8   100    0.3   353     0.6   840.0    0.00 
 353    4:10   0.00   28.8   100    0.2     9     0.4   840.0    0.00 
 353    4:20   0.00   28.7   100    0.3     1     0.5   840.0    0.00 
 353    4:30   0.00   28.7   100    0.3    30     0.7   840.0    0.00 
 353    4:40   0.00   28.7   100    0.5    32     1.0   840.0    0.00 
 353    4:50   0.00   28.8   100    0.3   344     0.5   840.0    0.00 
 353    5:00   0.00   28.7   100    0.4    19     0.7   840.0    0.00 
 353    5:10   0.00   28.7   100    0.3     2     0.5   840.0    0.00 
 353    5:20   0.00   28.8   100    0.3    13     0.5   840.0    0.00 
 353    5:30   0.00   28.7   100    0.4    31     1.2   841.0    0.00 
 353    5:40   0.00   28.8   100    0.4    23     1.0   841.0    0.00 
 353    5:50   0.00   28.9   100    0.3    16     0.5   841.0    0.00 
 353    6:00   0.00   29.0   100    0.3    16     0.5   841.0    0.00 
 353    6:10   0.00   29.1   100    0.3    34     0.6   841.0    0.00 
 353    6:20   0.00   29.2   100    0.3    37     0.6   841.0    0.00 
 353    6:30   0.00   29.2    99    0.3     7     0.5   841.0    0.00 
 353    6:40   0.00   29.1   100    0.2    10     0.3   841.0    0.00 
 353    6:50   0.00   29.0   100    0.3    18     0.5   841.0    0.00 
 353    7:00   0.00   29.0   100    0.3    14     0.5   841.0    0.00 
 353    7:10   0.00   29.1   100    0.3    25     0.6   841.0    0.00 
 353    7:20   0.00   29.1   100    0.3    37     0.6   841.0    0.00 
 353    7:30   0.01   29.2   100    0.4    40     0.6   841.0    0.00 
 353    7:40   0.01   29.3   100    0.4    37     0.7   841.0    0.00 
 353    7:50   0.02   29.5   100    0.4    38     0.8   841.0    0.00 
 353    8:00   0.03   29.8   100    0.5    46     0.8   840.0    0.00 
 353    8:10   0.03   30.2   100    0.3    80     0.9   841.0    0.00 
 353    8:20   0.01   30.6   100    0.4    58     0.8   841.0    0.00 
 353    8:30   0.01   30.7   100    0.4    44     1.1   841.0    0.00 
 353    8:40   0.02   30.9   100    0.4    56     0.7   842.0    0.00 
 353    8:50   0.02   31.1   100    0.5    60     0.8   842.0    0.00 
 353    9:00   0.02   31.3   100    0.4    59     0.8   842.0    0.00 
 353    9:10   0.02   31.5   100    0.8    55     1.1   842.0    0.00 
 353    9:20   0.03   31.8   100    0.6   167     1.3   842.0    0.00 
 353    9:30   0.03   32.1   100    0.5    35     1.1   841.0    0.00 
 353    9:40   0.03   32.2   100    0.4    73     1.1   842.0    0.00 
 353    9:50   0.03   32.5   100    0.3    82     0.7   842.0    0.00 
 353   10:00   0.03   33.2   100    0.3    83     0.7   842.0    0.00 
 353   10:10   0.04   33.5    99    0.5    94     0.8   842.0    0.00 
 353   10:20   0.04   34.1    99    0.4   100     0.8   842.0    0.00 
 353   10:30   0.05   34.5    99    0.3    72     0.9   842.0    0.00 
 353   10:40   0.18   35.4    99    0.5    85     1.2   841.0    0.00 
 353   10:50   0.14   36.3    99    0.5   173     1.0   841.0    0.00 
 353   11:00   0.09   38.1    99    0.5   189     1.1   841.0    0.00 
 353   11:10   0.18   39.4    98    0.6   184     1.9   841.0    0.00 
 353   11:20   0.38   41.5    87    0.6   221     1.8   841.0    0.00 
 353   11:30   0.42   42.3    78    0.7   168     2.0   841.0    0.00 
 353   11:40   0.63   42.9    81    0.6   198     1.4   840.0    0.00 
 353   11:50   0.63   44.0    80    0.8   198     1.4   840.0    0.00 
 353   12:00   0.63   44.4    79    0.7   210     1.8   840.0    0.00 
 353   12:10   0.63   45.0    78    0.7   180     1.4   840.0    0.00 
 353   12:20   100.00  99999.0   99999  99999.0   99999   99999.0   99999.0   99999.00 
 353   12:30   0.61   45.3    76    1.0   254     2.0   99999.0    0.00 
 353   12:40   0.59   46.3    76    0.8   315     1.1   99999.0    0.00 
 353   12:50   0.59   45.4    74    0.6   241     1.3   840.0    0.00 
 353   13:00   100.00  99999.0   99999  99999.0   99999   99999.0   99999.0   99999.00 
 353   13:10   0.34   45.1    71    1.0   194     1.4   99999.0    0.00 
 353   13:20   100.00  99999.0   99999  99999.0   99999   99999.0   99999.0   99999.00 
 353   13:30   100.00  99999.0   99999  99999.0   99999   99999.0   99999.0   99999.00 
 353   13:40   0.14   45.1    75    0.6   219     1.4   99999.0    0.00 
 353   13:50   0.14   44.5    76    0.8   183     1.5   840.0    0.00 
 353   14:00   0.07   43.5    76    0.7   217     2.2   840.0    0.00 
 353   14:10   0.09   42.9    74    0.8   214     2.0   840.0    0.00 
 353   14:20   0.07   43.0    73    0.6   203     1.6   840.0    0.00 
 353   14:30   0.05   42.8    71    0.6   194     1.1   840.0    0.00 
 353   14:40   0.06   41.7    80    0.5   209     0.8   840.0    0.00 
 353   14:50   0.07   41.0    85    0.4    70     0.8   840.0    0.00 
 353   15:00   0.08   40.9    85    0.2    87     0.6   840.0    0.00 
 353   15:10   0.08   40.4    88    0.3    62     0.9   840.0    0.00 
 353   15:20   0.07   40.3    90    0.3   115     0.6   840.0    0.00 
 353   15:30   0.06   40.0    91    0.3    42     0.6   840.0    0.00 
 353   15:40   0.04   39.7    92    0.3   187     0.7   840.0    0.00 

Return to James Reserve graphs page.


Western Regional Climate Center,wrcc@dri.edu